sensor_id;sensor_type;location;lat;lon;timestamp;temperature;humidity
814;DHT22;389;48.710;9.392;2023-06-22T00:02:24;22.40;99.90
814;DHT22;389;48.710;9.392;2023-06-22T00:04:50;22.40;99.90
814;DHT22;389;48.710;9.392;2023-06-22T00:07:16;22.40;99.90
814;DHT22;389;48.710;9.392;2023-06-22T00:09:41;22.50;99.90
814;DHT22;389;48.710;9.392;2023-06-22T00:12:07;22.40;99.90
814;DHT22;389;48.710;9.392;2023-06-22T00:14:33;22.40;99.90
814;DHT22;389;48.710;9.392;2023-06-22T00:16:59;22.40;99.90
814;DHT22;389;48.710;9.392;2023-06-22T00:19:25;22.30;99.90
814;DHT22;389;48.710;9.392;2023-06-22T00:21:50;22.30;99.90
814;DHT22;389;48.710;9.392;2023-06-22T00:24:19;22.30;99.90
814;DHT22;389;48.710;9.392;2023-06-22T00:26:45;22.30;99.90
814;DHT22;389;48.710;9.392;2023-06-22T00:29:10;22.30;99.90
814;DHT22;389;48.710;9.392;2023-06-22T00:31:36;22.20;99.90
814;DHT22;389;48.710;9.392;2023-06-22T00:34:01;22.20;99.90
814;DHT22;389;48.710;9.392;2023-06-22T00:36:27;22.20;99.90
814;DHT22;389;48.710;9.392;2023-06-22T00:38:53;22.10;99.90
814;DHT22;389;48.710;9.392;2023-06-22T00:41:18;22.10;99.90
814;DHT22;389;48.710;9.392;2023-06-22T00:43:45;22.10;99.90
814;DHT22;389;48.710;9.392;2023-06-22T00:46:11;22.00;99.90
814;DHT22;389;48.710;9.392;2023-06-22T00:48:37;22.00;99.90
814;DHT22;389;48.710;9.392;2023-06-22T00:51:03;22.00;99.90
814;DHT22;389;48.710;9.392;2023-06-22T00:53:29;21.90;99.90
814;DHT22;389;48.710;9.392;2023-06-22T00:55:55;21.90;99.90
814;DHT22;389;48.710;9.392;2023-06-22T00:58:21;21.90;99.90
814;DHT22;389;48.710;9.392;2023-06-22T01:00:48;21.90;99.90
814;DHT22;389;48.710;9.392;2023-06-22T01:03:13;21.90;99.90
814;DHT22;389;48.710;9.392;2023-06-22T01:05:39;21.90;99.90
814;DHT22;389;48.710;9.392;2023-06-22T01:10:57;21.80;99.90
814;DHT22;389;48.710;9.392;2023-06-22T01:13:41;21.80;99.90
814;DHT22;389;48.710;9.392;2023-06-22T01:16:37;21.80;99.90
814;DHT22;389;48.710;9.392;2023-06-22T01:22:01;21.80;99.90
814;DHT22;389;48.710;9.392;2023-06-22T01:24:38;21.70;99.90
814;DHT22;389;48.710;9.392;2023-06-22T01:27:31;21.60;99.90
814;DHT22;389;48.710;9.392;2023-06-22T01:29:58;21.60;99.90
814;DHT22;389;48.710;9.392;2023-06-22T01:32:34;21.60;99.90
814;DHT22;389;48.710;9.392;2023-06-22T01:35:03;21.60;99.90
814;DHT22;389;48.710;9.392;2023-06-22T01:37:29;21.60;99.90
814;DHT22;389;48.710;9.392;2023-06-22T01:39:58;21.60;99.90
814;DHT22;389;48.710;9.392;2023-06-22T01:42:25;21.50;99.90
814;DHT22;389;48.710;9.392;2023-06-22T01:44:53;21.50;99.90
814;DHT22;389;48.710;9.392;2023-06-22T01:47:20;21.50;99.90
814;DHT22;389;48.710;9.392;2023-06-22T01:49:46;21.40;99.90
814;DHT22;389;48.710;9.392;2023-06-22T01:52:12;21.40;99.90
814;DHT22;389;48.710;9.392;2023-06-22T01:54:39;21.40;99.90
814;DHT22;389;48.710;9.392;2023-06-22T01:57:05;21.30;99.90
814;DHT22;389;48.710;9.392;2023-06-22T01:59:35;21.20;99.90
814;DHT22;389;48.710;9.392;2023-06-22T02:02:07;21.20;99.90
814;DHT22;389;48.710;9.392;2023-06-22T02:04:50;21.20;99.90
814;DHT22;389;48.710;9.392;2023-06-22T02:07:18;21.10;99.90
814;DHT22;389;48.710;9.392;2023-06-22T02:09:47;21.10;99.90
814;DHT22;389;48.710;9.392;2023-06-22T02:12:17;21.10;99.90
814;DHT22;389;48.710;9.392;2023-06-22T02:14:44;21.00;99.90
814;DHT22;389;48.710;9.392;2023-06-22T02:17:13;20.90;99.90
814;DHT22;389;48.710;9.392;2023-06-22T02:19:41;20.90;99.90
814;DHT22;389;48.710;9.392;2023-06-22T02:22:07;20.90;99.90
814;DHT22;389;48.710;9.392;2023-06-22T02:24:33;20.90;99.90
814;DHT22;389;48.710;9.392;2023-06-22T02:26:59;20.90;99.90
814;DHT22;389;48.710;9.392;2023-06-22T02:29:25;20.90;99.90
814;DHT22;389;48.710;9.392;2023-06-22T02:31:51;20.90;99.90
814;DHT22;389;48.710;9.392;2023-06-22T02:34:16;20.80;99.90
814;DHT22;389;48.710;9.392;2023-06-22T02:36:47;20.80;99.90
814;DHT22;389;48.710;9.392;2023-06-22T02:39:20;20.80;99.90
814;DHT22;389;48.710;9.392;2023-06-22T02:41:51;20.80;99.90
814;DHT22;389;48.710;9.392;2023-06-22T02:44:17;20.70;99.90
814;DHT22;389;48.710;9.392;2023-06-22T02:46:45;20.70;99.90
814;DHT22;389;48.710;9.392;2023-06-22T02:49:11;20.70;99.90
814;DHT22;389;48.710;9.392;2023-06-22T02:51:47;20.70;99.90
814;DHT22;389;48.710;9.392;2023-06-22T02:54:13;20.70;99.90
814;DHT22;389;48.710;9.392;2023-06-22T02:56:38;20.70;99.90
814;DHT22;389;48.710;9.392;2023-06-22T02:59:06;20.70;99.90
814;DHT22;389;48.710;9.392;2023-06-22T03:01:32;20.70;99.90
814;DHT22;389;48.710;9.392;2023-06-22T03:04:03;20.60;99.90
814;DHT22;389;48.710;9.392;2023-06-22T03:06:29;20.60;99.90
814;DHT22;389;48.710;9.392;2023-06-22T03:09:03;20.50;99.90
814;DHT22;389;48.710;9.392;2023-06-22T03:11:30;20.40;99.90
814;DHT22;389;48.710;9.392;2023-06-22T03:13:56;20.40;99.90
814;DHT22;389;48.710;9.392;2023-06-22T03:16:22;20.40;99.90
814;DHT22;389;48.710;9.392;2023-06-22T03:18:47;20.30;99.90
814;DHT22;389;48.710;9.392;2023-06-22T03:21:13;20.30;99.90
814;DHT22;389;48.710;9.392;2023-06-22T03:23:40;20.30;99.90
814;DHT22;389;48.710;9.392;2023-06-22T03:26:06;20.20;99.90
814;DHT22;389;48.710;9.392;2023-06-22T03:28:32;20.20;99.90
814;DHT22;389;48.710;9.392;2023-06-22T03:30:58;20.20;99.90
814;DHT22;389;48.710;9.392;2023-06-22T03:33:24;20.20;99.90
814;DHT22;389;48.710;9.392;2023-06-22T03:35:49;20.20;99.90
814;DHT22;389;48.710;9.392;2023-06-22T03:38:16;20.30;99.90
814;DHT22;389;48.710;9.392;2023-06-22T03:40:42;20.30;99.90
814;DHT22;389;48.710;9.392;2023-06-22T03:43:07;20.30;99.90
814;DHT22;389;48.710;9.392;2023-06-22T03:45:33;20.30;99.90
814;DHT22;389;48.710;9.392;2023-06-22T03:47:59;20.40;99.90
814;DHT22;389;48.710;9.392;2023-06-22T03:50:25;20.30;99.90
814;DHT22;389;48.710;9.392;2023-06-22T03:52:51;20.40;99.90
814;DHT22;389;48.710;9.392;2023-06-22T03:55:19;20.40;99.90
814;DHT22;389;48.710;9.392;2023-06-22T03:57:44;20.50;99.90
814;DHT22;389;48.710;9.392;2023-06-22T04:00:10;20.50;99.90
814;DHT22;389;48.710;9.392;2023-06-22T04:02:36;20.60;99.90
814;DHT22;389;48.710;9.392;2023-06-22T04:05:02;20.60;99.90
814;DHT22;389;48.710;9.392;2023-06-22T04:07:28;20.60;99.90
814;DHT22;389;48.710;9.392;2023-06-22T04:09:53;20.80;99.90
814;DHT22;389;48.710;9.392;2023-06-22T04:12:19;20.80;99.90
814;DHT22;389;48.710;9.392;2023-06-22T04:14:44;20.90;99.90
814;DHT22;389;48.710;9.392;2023-06-22T04:17:10;21.00;99.90
814;DHT22;389;48.710;9.392;2023-06-22T04:19:39;21.10;99.90
814;DHT22;389;48.710;9.392;2023-06-22T04:22:05;21.10;99.90
814;DHT22;389;48.710;9.392;2023-06-22T04:24:33;21.20;99.90
814;DHT22;389;48.710;9.392;2023-06-22T04:26:58;21.30;99.90
814;DHT22;389;48.710;9.392;2023-06-22T04:29:31;21.40;99.90
814;DHT22;389;48.710;9.392;2023-06-22T04:31:57;21.50;99.90
814;DHT22;389;48.710;9.392;2023-06-22T04:34:24;21.60;99.90
814;DHT22;389;48.710;9.392;2023-06-22T04:36:52;21.70;99.90
814;DHT22;389;48.710;9.392;2023-06-22T04:39:17;21.80;99.90
814;DHT22;389;48.710;9.392;2023-06-22T04:41:44;21.90;99.90
814;DHT22;389;48.710;9.392;2023-06-22T04:44:11;22.10;99.90
814;DHT22;389;48.710;9.392;2023-06-22T04:46:37;22.30;99.90
814;DHT22;389;48.710;9.392;2023-06-22T04:49:07;22.60;99.90
814;DHT22;389;48.710;9.392;2023-06-22T04:51:37;23.00;99.90
814;DHT22;389;48.710;9.392;2023-06-22T04:54:03;23.40;99.90
814;DHT22;389;48.710;9.392;2023-06-22T04:56:31;23.80;99.20
814;DHT22;389;48.710;9.392;2023-06-22T04:58:56;24.20;98.70
814;DHT22;389;48.710;9.392;2023-06-22T05:01:23;24.60;97.70
814;DHT22;389;48.710;9.392;2023-06-22T05:03:51;25.00;97.10
814;DHT22;389;48.710;9.392;2023-06-22T05:06:21;25.50;96.60
814;DHT22;389;48.710;9.392;2023-06-22T05:08:47;25.80;95.60
814;DHT22;389;48.710;9.392;2023-06-22T05:11:12;26.20;94.70
814;DHT22;389;48.710;9.392;2023-06-22T05:13:38;26.50;93.80
814;DHT22;389;48.710;9.392;2023-06-22T05:16:04;26.70;93.10
814;DHT22;389;48.710;9.392;2023-06-22T05:18:30;26.90;92.70
814;DHT22;389;48.710;9.392;2023-06-22T05:20:57;27.10;92.10
814;DHT22;389;48.710;9.392;2023-06-22T05:23:23;27.30;91.80
814;DHT22;389;48.710;9.392;2023-06-22T05:25:48;27.50;91.50
814;DHT22;389;48.710;9.392;2023-06-22T05:28:14;27.60;91.10
814;DHT22;389;48.710;9.392;2023-06-22T05:30:39;27.70;90.90
814;DHT22;389;48.710;9.392;2023-06-22T05:33:05;27.60;90.80
814;DHT22;389;48.710;9.392;2023-06-22T05:35:31;27.60;90.90
814;DHT22;389;48.710;9.392;2023-06-22T05:37:56;27.60;90.90
814;DHT22;389;48.710;9.392;2023-06-22T05:40:22;27.60;90.80
814;DHT22;389;48.710;9.392;2023-06-22T05:42:48;27.70;90.70
814;DHT22;389;48.710;9.392;2023-06-22T05:45:13;27.90;90.40
814;DHT22;389;48.710;9.392;2023-06-22T05:47:39;28.20;90.10
814;DHT22;389;48.710;9.392;2023-06-22T05:50:05;28.50;89.20
814;DHT22;389;48.710;9.392;2023-06-22T05:52:34;28.90;87.80
814;DHT22;389;48.710;9.392;2023-06-22T05:55:00;29.20;87.00
814;DHT22;389;48.710;9.392;2023-06-22T05:57:25;29.50;84.90
814;DHT22;389;48.710;9.392;2023-06-22T05:59:51;29.60;84.10
814;DHT22;389;48.710;9.392;2023-06-22T06:02:17;29.90;83.90
814;DHT22;389;48.710;9.392;2023-06-22T06:04:42;30.30;83.50
814;DHT22;389;48.710;9.392;2023-06-22T06:07:08;30.50;80.90
814;DHT22;389;48.710;9.392;2023-06-22T06:09:33;30.80;79.60
814;DHT22;389;48.710;9.392;2023-06-22T06:11:59;31.00;79.10
814;DHT22;389;48.710;9.392;2023-06-22T06:14:29;31.30;78.50
814;DHT22;389;48.710;9.392;2023-06-22T06:16:54;31.40;77.10
814;DHT22;389;48.710;9.392;2023-06-22T06:19:20;31.40;76.10
814;DHT22;389;48.710;9.392;2023-06-22T06:21:46;31.60;76.30
814;DHT22;389;48.710;9.392;2023-06-22T06:24:12;31.90;75.80
814;DHT22;389;48.710;9.392;2023-06-22T06:26:37;32.00;74.20
814;DHT22;389;48.710;9.392;2023-06-22T06:29:03;32.10;73.40
814;DHT22;389;48.710;9.392;2023-06-22T06:31:28;32.10;72.40
814;DHT22;389;48.710;9.392;2023-06-22T06:33:54;32.20;72.90
814;DHT22;389;48.710;9.392;2023-06-22T06:36:20;32.20;71.90
814;DHT22;389;48.710;9.392;2023-06-22T06:38:46;32.10;71.50
814;DHT22;389;48.710;9.392;2023-06-22T06:41:14;31.80;71.30
814;DHT22;389;48.710;9.392;2023-06-22T06:43:40;31.50;72.10
814;DHT22;389;48.710;9.392;2023-06-22T06:46:08;31.40;72.50
814;DHT22;389;48.710;9.392;2023-06-22T06:48:33;31.30;73.20
814;DHT22;389;48.710;9.392;2023-06-22T06:50:59;31.20;73.30
814;DHT22;389;48.710;9.392;2023-06-22T06:53:25;31.10;73.70
814;DHT22;389;48.710;9.392;2023-06-22T06:55:50;31.10;74.00
814;DHT22;389;48.710;9.392;2023-06-22T06:58:16;31.30;73.80
814;DHT22;389;48.710;9.392;2023-06-22T07:00:41;31.40;72.70
814;DHT22;389;48.710;9.392;2023-06-22T07:03:08;31.60;72.80
814;DHT22;389;48.710;9.392;2023-06-22T07:05:34;31.80;72.10
814;DHT22;389;48.710;9.392;2023-06-22T07:08:01;32.00;71.80
814;DHT22;389;48.710;9.392;2023-06-22T07:10:26;32.20;71.10
814;DHT22;389;48.710;9.392;2023-06-22T07:12:52;32.30;70.00
814;DHT22;389;48.710;9.392;2023-06-22T07:15:18;32.40;69.40
814;DHT22;389;48.710;9.392;2023-06-22T07:17:43;32.40;69.60
814;DHT22;389;48.710;9.392;2023-06-22T07:20:09;32.30;69.50
814;DHT22;389;48.710;9.392;2023-06-22T07:22:41;32.30;69.50
814;DHT22;389;48.710;9.392;2023-06-22T07:25:07;32.30;69.80
814;DHT22;389;48.710;9.392;2023-06-22T07:27:44;32.20;70.30
814;DHT22;389;48.710;9.392;2023-06-22T07:30:11;32.20;70.20
814;DHT22;389;48.710;9.392;2023-06-22T07:32:37;32.00;70.20
814;DHT22;389;48.710;9.392;2023-06-22T07:35:03;31.80;70.00
814;DHT22;389;48.710;9.392;2023-06-22T07:37:29;31.60;71.50
814;DHT22;389;48.710;9.392;2023-06-22T07:39:55;31.50;71.30
814;DHT22;389;48.710;9.392;2023-06-22T07:42:37;31.40;71.20
814;DHT22;389;48.710;9.392;2023-06-22T07:45:03;31.30;71.50
814;DHT22;389;48.710;9.392;2023-06-22T07:47:29;31.20;71.00
814;DHT22;389;48.710;9.392;2023-06-22T07:49:58;31.10;71.50
814;DHT22;389;48.710;9.392;2023-06-22T07:52:24;31.00;71.80
814;DHT22;389;48.710;9.392;2023-06-22T07:54:51;30.90;72.20
814;DHT22;389;48.710;9.392;2023-06-22T07:57:16;30.90;72.60
814;DHT22;389;48.710;9.392;2023-06-22T07:59:42;30.90;72.00
814;DHT22;389;48.710;9.392;2023-06-22T08:02:07;31.00;71.60
814;DHT22;389;48.710;9.392;2023-06-22T08:04:34;31.10;72.00
814;DHT22;389;48.710;9.392;2023-06-22T08:07:00;31.10;71.70
814;DHT22;389;48.710;9.392;2023-06-22T08:09:28;31.30;71.30
814;DHT22;389;48.710;9.392;2023-06-22T08:11:54;31.10;70.00
814;DHT22;389;48.710;9.392;2023-06-22T08:14:22;31.00;71.80
814;DHT22;389;48.710;9.392;2023-06-22T08:16:48;30.90;71.20
814;DHT22;389;48.710;9.392;2023-06-22T08:19:14;31.00;71.80
814;DHT22;389;48.710;9.392;2023-06-22T08:21:39;31.10;71.10
814;DHT22;389;48.710;9.392;2023-06-22T08:24:05;31.10;70.70
814;DHT22;389;48.710;9.392;2023-06-22T08:26:32;31.20;70.70
814;DHT22;389;48.710;9.392;2023-06-22T08:29:01;31.40;70.00
814;DHT22;389;48.710;9.392;2023-06-22T08:31:27;31.60;70.60
814;DHT22;389;48.710;9.392;2023-06-22T08:33:53;31.80;70.20
814;DHT22;389;48.710;9.392;2023-06-22T08:36:18;32.20;68.70
814;DHT22;389;48.710;9.392;2023-06-22T08:38:44;32.40;67.60
814;DHT22;389;48.710;9.392;2023-06-22T08:41:10;32.60;67.60
814;DHT22;389;48.710;9.392;2023-06-22T08:43:47;32.80;67.10
814;DHT22;389;48.710;9.392;2023-06-22T08:46:12;32.90;66.00
814;DHT22;389;48.710;9.392;2023-06-22T08:48:38;32.90;65.60
814;DHT22;389;48.710;9.392;2023-06-22T08:51:04;33.00;65.90
814;DHT22;389;48.710;9.392;2023-06-22T08:53:30;33.10;64.70
814;DHT22;389;48.710;9.392;2023-06-22T08:55:55;33.20;65.00
814;DHT22;389;48.710;9.392;2023-06-22T08:58:21;33.30;64.70
814;DHT22;389;48.710;9.392;2023-06-22T09:00:47;33.50;64.90
814;DHT22;389;48.710;9.392;2023-06-22T09:03:13;33.80;65.10
814;DHT22;389;48.710;9.392;2023-06-22T09:05:38;34.00;65.10
814;DHT22;389;48.710;9.392;2023-06-22T09:08:04;34.30;65.10
814;DHT22;389;48.710;9.392;2023-06-22T09:10:30;34.40;64.80
814;DHT22;389;48.710;9.392;2023-06-22T09:12:56;34.60;65.10
814;DHT22;389;48.710;9.392;2023-06-22T09:15:22;34.70;65.00
814;DHT22;389;48.710;9.392;2023-06-22T09:17:48;34.70;64.10
814;DHT22;389;48.710;9.392;2023-06-22T09:20:13;34.80;65.00
814;DHT22;389;48.710;9.392;2023-06-22T09:22:39;34.80;64.70
814;DHT22;389;48.710;9.392;2023-06-22T09:25:05;34.80;64.80
814;DHT22;389;48.710;9.392;2023-06-22T09:27:31;34.80;64.60
814;DHT22;389;48.710;9.392;2023-06-22T09:29:56;34.70;63.60
814;DHT22;389;48.710;9.392;2023-06-22T09:32:24;34.70;62.90
814;DHT22;389;48.710;9.392;2023-06-22T09:34:50;34.60;64.30
814;DHT22;389;48.710;9.392;2023-06-22T09:37:16;34.60;64.70
814;DHT22;389;48.710;9.392;2023-06-22T09:39:41;34.60;63.50
814;DHT22;389;48.710;9.392;2023-06-22T09:42:07;34.50;63.10
814;DHT22;389;48.710;9.392;2023-06-22T09:44:33;34.40;62.40
814;DHT22;389;48.710;9.392;2023-06-22T09:46:59;34.30;63.00
814;DHT22;389;48.710;9.392;2023-06-22T09:49:25;34.20;62.10
814;DHT22;389;48.710;9.392;2023-06-22T09:51:50;34.10;62.80
814;DHT22;389;48.710;9.392;2023-06-22T09:54:16;34.00;64.00
814;DHT22;389;48.710;9.392;2023-06-22T09:56:42;33.90;64.20
814;DHT22;389;48.710;9.392;2023-06-22T09:59:07;33.80;64.80
814;DHT22;389;48.710;9.392;2023-06-22T10:01:33;33.70;65.50
814;DHT22;389;48.710;9.392;2023-06-22T10:03:59;33.80;65.60
814;DHT22;389;48.710;9.392;2023-06-22T10:06:25;33.90;65.70
814;DHT22;389;48.710;9.392;2023-06-22T10:08:51;33.90;65.10
814;DHT22;389;48.710;9.392;2023-06-22T10:11:17;34.00;65.50
814;DHT22;389;48.710;9.392;2023-06-22T10:13:43;33.90;65.10
814;DHT22;389;48.710;9.392;2023-06-22T10:16:08;34.00;65.20
814;DHT22;389;48.710;9.392;2023-06-22T10:18:34;34.10;65.30
814;DHT22;389;48.710;9.392;2023-06-22T10:21:00;34.20;64.80
814;DHT22;389;48.710;9.392;2023-06-22T10:23:25;34.40;64.40
814;DHT22;389;48.710;9.392;2023-06-22T10:25:51;34.60;64.40
814;DHT22;389;48.710;9.392;2023-06-22T10:28:16;34.70;63.50
814;DHT22;389;48.710;9.392;2023-06-22T10:30:43;34.90;63.20
814;DHT22;389;48.710;9.392;2023-06-22T10:33:10;35.20;63.90
814;DHT22;389;48.710;9.392;2023-06-22T10:35:36;35.40;62.10
814;DHT22;389;48.710;9.392;2023-06-22T10:38:03;35.60;61.90
814;DHT22;389;48.710;9.392;2023-06-22T10:40:28;35.90;62.10
814;DHT22;389;48.710;9.392;2023-06-22T10:42:54;36.10;62.00
814;DHT22;389;48.710;9.392;2023-06-22T10:45:20;36.30;61.30
814;DHT22;389;48.710;9.392;2023-06-22T10:47:45;36.60;60.90
814;DHT22;389;48.710;9.392;2023-06-22T10:50:11;36.80;59.80
814;DHT22;389;48.710;9.392;2023-06-22T10:52:37;37.00;58.80
814;DHT22;389;48.710;9.392;2023-06-22T10:55:03;37.00;57.30
814;DHT22;389;48.710;9.392;2023-06-22T10:57:29;36.90;57.70
814;DHT22;389;48.710;9.392;2023-06-22T10:59:55;36.80;57.50
814;DHT22;389;48.710;9.392;2023-06-22T11:02:20;36.80;58.00
814;DHT22;389;48.710;9.392;2023-06-22T11:04:46;36.80;58.80
814;DHT22;389;48.710;9.392;2023-06-22T11:07:13;36.90;58.70
814;DHT22;389;48.710;9.392;2023-06-22T11:09:38;37.00;58.10
814;DHT22;389;48.710;9.392;2023-06-22T11:12:05;37.00;57.80
814;DHT22;389;48.710;9.392;2023-06-22T11:14:31;37.10;57.40
814;DHT22;389;48.710;9.392;2023-06-22T11:16:59;37.30;56.50
814;DHT22;389;48.710;9.392;2023-06-22T11:19:24;37.30;55.20
814;DHT22;389;48.710;9.392;2023-06-22T11:21:50;37.40;56.00
814;DHT22;389;48.710;9.392;2023-06-22T11:24:16;37.20;56.40
814;DHT22;389;48.710;9.392;2023-06-22T11:26:42;37.00;55.20
814;DHT22;389;48.710;9.392;2023-06-22T11:29:07;36.90;55.10
814;DHT22;389;48.710;9.392;2023-06-22T11:31:34;36.90;56.00
814;DHT22;389;48.710;9.392;2023-06-22T11:34:00;37.00;56.20
814;DHT22;389;48.710;9.392;2023-06-22T11:36:26;37.00;55.90
814;DHT22;389;48.710;9.392;2023-06-22T11:38:52;37.10;56.90
814;DHT22;389;48.710;9.392;2023-06-22T11:41:17;37.30;56.90
814;DHT22;389;48.710;9.392;2023-06-22T11:43:43;37.50;56.80
814;DHT22;389;48.710;9.392;2023-06-22T11:46:09;37.60;56.40
814;DHT22;389;48.710;9.392;2023-06-22T11:48:36;37.80;56.50
814;DHT22;389;48.710;9.392;2023-06-22T11:51:02;37.90;56.20
814;DHT22;389;48.710;9.392;2023-06-22T11:53:29;38.00;56.00
814;DHT22;389;48.710;9.392;2023-06-22T11:55:55;38.10;56.40
814;DHT22;389;48.710;9.392;2023-06-22T11:58:21;38.10;56.40
814;DHT22;389;48.710;9.392;2023-06-22T12:00:47;38.10;55.60
814;DHT22;389;48.710;9.392;2023-06-22T12:03:13;38.10;56.00
814;DHT22;389;48.710;9.392;2023-06-22T12:05:40;38.00;55.70
814;DHT22;389;48.710;9.392;2023-06-22T12:08:06;38.00;55.80
814;DHT22;389;48.710;9.392;2023-06-22T12:10:32;37.90;55.50
814;DHT22;389;48.710;9.392;2023-06-22T12:12:58;38.00;56.10
814;DHT22;389;48.710;9.392;2023-06-22T12:15:25;38.10;56.00
814;DHT22;389;48.710;9.392;2023-06-22T12:17:51;38.20;55.60
814;DHT22;389;48.710;9.392;2023-06-22T12:20:16;38.30;54.90
814;DHT22;389;48.710;9.392;2023-06-22T12:22:43;38.40;54.30
814;DHT22;389;48.710;9.392;2023-06-22T12:25:09;38.50;54.10
814;DHT22;389;48.710;9.392;2023-06-22T12:27:35;38.50;54.00
814;DHT22;389;48.710;9.392;2023-06-22T12:30:01;38.50;54.00
814;DHT22;389;48.710;9.392;2023-06-22T12:32:27;38.50;54.00
814;DHT22;389;48.710;9.392;2023-06-22T12:35:01;38.40;54.10
814;DHT22;389;48.710;9.392;2023-06-22T12:37:26;38.40;54.20
814;DHT22;389;48.710;9.392;2023-06-22T12:39:54;38.40;54.50
814;DHT22;389;48.710;9.392;2023-06-22T12:42:19;38.30;54.60
814;DHT22;389;48.710;9.392;2023-06-22T12:44:46;38.20;54.70
814;DHT22;389;48.710;9.392;2023-06-22T12:47:11;38.10;54.80
814;DHT22;389;48.710;9.392;2023-06-22T12:49:38;38.00;55.00
814;DHT22;389;48.710;9.392;2023-06-22T12:52:09;37.80;55.40
814;DHT22;389;48.710;9.392;2023-06-22T12:54:35;37.60;55.60
814;DHT22;389;48.710;9.392;2023-06-22T12:57:01;37.50;55.70
814;DHT22;389;48.710;9.392;2023-06-22T12:59:27;37.40;55.80
814;DHT22;389;48.710;9.392;2023-06-22T13:01:52;37.20;55.50
814;DHT22;389;48.710;9.392;2023-06-22T13:04:20;37.10;56.00
814;DHT22;389;48.710;9.392;2023-06-22T13:06:46;37.00;56.00
814;DHT22;389;48.710;9.392;2023-06-22T13:09:14;37.00;55.80
814;DHT22;389;48.710;9.392;2023-06-22T13:11:40;36.90;56.40
814;DHT22;389;48.710;9.392;2023-06-22T13:14:06;36.70;56.70
814;DHT22;389;48.710;9.392;2023-06-22T13:16:31;36.70;56.50
814;DHT22;389;48.710;9.392;2023-06-22T13:18:57;36.60;56.10
814;DHT22;389;48.710;9.392;2023-06-22T13:21:22;36.60;56.30
814;DHT22;389;48.710;9.392;2023-06-22T13:23:48;36.50;56.20
814;DHT22;389;48.710;9.392;2023-06-22T13:26:13;36.40;56.10
814;DHT22;389;48.710;9.392;2023-06-22T13:28:39;36.40;56.00
814;DHT22;389;48.710;9.392;2023-06-22T13:31:04;36.40;55.60
814;DHT22;389;48.710;9.392;2023-06-22T13:33:30;36.50;56.00
814;DHT22;389;48.710;9.392;2023-06-22T13:35:56;36.50;56.10
814;DHT22;389;48.710;9.392;2023-06-22T13:38:22;36.60;55.40
814;DHT22;389;48.710;9.392;2023-06-22T13:40:48;36.80;55.80
814;DHT22;389;48.710;9.392;2023-06-22T13:43:14;37.00;54.30
814;DHT22;389;48.710;9.392;2023-06-22T13:45:40;37.10;54.20
814;DHT22;389;48.710;9.392;2023-06-22T13:48:18;37.10;52.80
814;DHT22;389;48.710;9.392;2023-06-22T13:50:44;37.10;52.60
814;DHT22;389;48.710;9.392;2023-06-22T13:53:09;37.30;52.50
814;DHT22;389;48.710;9.392;2023-06-22T13:55:35;37.50;52.30
814;DHT22;389;48.710;9.392;2023-06-22T13:58:00;37.50;51.10
814;DHT22;389;48.710;9.392;2023-06-22T14:00:26;37.40;51.00
814;DHT22;389;48.710;9.392;2023-06-22T14:02:53;37.50;50.70
814;DHT22;389;48.710;9.392;2023-06-22T14:05:19;37.50;51.00
814;DHT22;389;48.710;9.392;2023-06-22T14:07:45;37.60;51.70
814;DHT22;389;48.710;9.392;2023-06-22T14:10:11;37.70;49.80
814;DHT22;389;48.710;9.392;2023-06-22T14:12:36;37.80;49.40
814;DHT22;389;48.710;9.392;2023-06-22T14:15:02;37.90;49.40
814;DHT22;389;48.710;9.392;2023-06-22T14:17:28;38.10;49.40
814;DHT22;389;48.710;9.392;2023-06-22T14:19:53;38.20;50.00
814;DHT22;389;48.710;9.392;2023-06-22T14:22:20;38.30;49.50
814;DHT22;389;48.710;9.392;2023-06-22T14:24:47;38.40;49.40
814;DHT22;389;48.710;9.392;2023-06-22T14:27:14;38.50;49.20
814;DHT22;389;48.710;9.392;2023-06-22T14:29:39;38.60;48.70
814;DHT22;389;48.710;9.392;2023-06-22T14:32:06;38.60;48.50
814;DHT22;389;48.710;9.392;2023-06-22T14:34:32;38.60;48.90
814;DHT22;389;48.710;9.392;2023-06-22T14:36:58;38.70;48.50
814;DHT22;389;48.710;9.392;2023-06-22T14:39:23;38.70;48.80
814;DHT22;389;48.710;9.392;2023-06-22T14:41:50;38.80;49.40
814;DHT22;389;48.710;9.392;2023-06-22T14:44:17;38.90;50.00
814;DHT22;389;48.710;9.392;2023-06-22T14:46:42;39.10;49.20
814;DHT22;389;48.710;9.392;2023-06-22T14:49:08;39.20;49.10
814;DHT22;389;48.710;9.392;2023-06-22T14:51:34;39.20;49.20
814;DHT22;389;48.710;9.392;2023-06-22T14:54:00;39.20;49.30
814;DHT22;389;48.710;9.392;2023-06-22T14:56:26;38.80;49.20
814;DHT22;389;48.710;9.392;2023-06-22T14:58:51;38.70;49.70
814;DHT22;389;48.710;9.392;2023-06-22T15:01:17;38.60;50.20
814;DHT22;389;48.710;9.392;2023-06-22T15:03:43;38.40;50.20
814;DHT22;389;48.710;9.392;2023-06-22T15:06:09;38.30;51.00
814;DHT22;389;48.710;9.392;2023-06-22T15:08:37;38.40;50.80
814;DHT22;389;48.710;9.392;2023-06-22T15:11:04;38.30;51.40
814;DHT22;389;48.710;9.392;2023-06-22T15:13:33;38.30;51.50
814;DHT22;389;48.710;9.392;2023-06-22T15:16:02;38.20;50.50
814;DHT22;389;48.710;9.392;2023-06-22T15:18:31;38.10;50.30
814;DHT22;389;48.710;9.392;2023-06-22T15:20:59;37.90;49.60
814;DHT22;389;48.710;9.392;2023-06-22T15:23:27;37.70;49.30
814;DHT22;389;48.710;9.392;2023-06-22T15:25:57;37.70;49.40
814;DHT22;389;48.710;9.392;2023-06-22T15:28:23;37.60;48.70
814;DHT22;389;48.710;9.392;2023-06-22T15:30:49;37.50;47.20
814;DHT22;389;48.710;9.392;2023-06-22T15:33:15;37.40;47.40
814;DHT22;389;48.710;9.392;2023-06-22T15:35:41;37.50;47.00
814;DHT22;389;48.710;9.392;2023-06-22T15:38:06;37.40;46.10
814;DHT22;389;48.710;9.392;2023-06-22T15:40:32;37.30;46.40
814;DHT22;389;48.710;9.392;2023-06-22T15:42:58;37.30;46.20
814;DHT22;389;48.710;9.392;2023-06-22T15:45:24;37.00;45.30
814;DHT22;389;48.710;9.392;2023-06-22T15:47:50;36.80;45.10
814;DHT22;389;48.710;9.392;2023-06-22T15:50:16;36.70;45.00
814;DHT22;389;48.710;9.392;2023-06-22T15:52:41;36.50;45.30
814;DHT22;389;48.710;9.392;2023-06-22T15:55:07;36.30;45.40
814;DHT22;389;48.710;9.392;2023-06-22T15:57:34;36.20;45.70
814;DHT22;389;48.710;9.392;2023-06-22T16:00:00;36.10;45.80
814;DHT22;389;48.710;9.392;2023-06-22T16:02:25;36.10;46.10
814;DHT22;389;48.710;9.392;2023-06-22T16:04:52;35.90;46.10
814;DHT22;389;48.710;9.392;2023-06-22T16:07:19;35.80;46.30
814;DHT22;389;48.710;9.392;2023-06-22T16:09:45;35.80;46.70
814;DHT22;389;48.710;9.392;2023-06-22T16:12:10;35.80;46.60
814;DHT22;389;48.710;9.392;2023-06-22T16:14:44;35.70;46.00
814;DHT22;389;48.710;9.392;2023-06-22T16:17:10;35.60;46.30
814;DHT22;389;48.710;9.392;2023-06-22T16:19:35;35.40;46.40
814;DHT22;389;48.710;9.392;2023-06-22T16:22:01;35.30;46.70
814;DHT22;389;48.710;9.392;2023-06-22T16:24:27;35.20;47.10
814;DHT22;389;48.710;9.392;2023-06-22T16:26:53;35.00;46.90
814;DHT22;389;48.710;9.392;2023-06-22T16:29:18;34.90;47.00
814;DHT22;389;48.710;9.392;2023-06-22T16:31:44;34.70;47.10
814;DHT22;389;48.710;9.392;2023-06-22T16:34:09;34.60;47.20
814;DHT22;389;48.710;9.392;2023-06-22T16:36:35;34.40;47.40